createdAt,value
2023-02-05T00:00:20.286Z,6.88
2023-02-05T00:02:52.883Z,6.86
2023-02-05T00:05:22.809Z,6.86
2023-02-05T00:07:52.630Z,6.84
2023-02-05T00:10:22.553Z,6.81
2023-02-05T00:12:52.347Z,6.81
2023-02-05T00:15:22.275Z,6.80
2023-02-05T00:17:54.656Z,6.82
2023-02-05T00:20:24.561Z,6.84
2023-02-05T00:22:57.781Z,6.86
2023-02-05T00:25:27.691Z,6.90
2023-02-05T00:27:57.490Z,6.92
2023-02-05T00:30:28.624Z,6.92
2023-02-05T00:33:01.082Z,6.92
2023-02-05T00:35:30.923Z,6.92
2023-02-05T00:38:00.732Z,6.91
2023-02-05T00:40:30.497Z,6.90
2023-02-05T00:43:00.313Z,6.91
2023-02-05T00:45:35.245Z,6.91
2023-02-05T00:48:08.648Z,6.91
2023-02-05T00:50:38.678Z,6.94
2023-02-05T00:53:10.234Z,6.96
2023-02-05T00:55:40.102Z,6.97
2023-02-05T00:58:09.973Z,6.98
2023-02-05T01:00:39.936Z,6.99
2023-02-05T01:03:12.528Z,7.01
2023-02-05T01:05:43.011Z,7.01
2023-02-05T01:08:14.799Z,7.04
2023-02-05T01:10:47.474Z,7.04
2023-02-05T01:13:18.317Z,7.05
2023-02-05T01:15:48.603Z,7.07
2023-02-05T01:18:21.409Z,7.07
2023-02-05T01:20:51.311Z,7.08
2023-02-05T01:23:21.100Z,7.08
2023-02-05T01:25:51.202Z,7.09
2023-02-05T01:28:21.171Z,7.11
2023-02-05T01:30:52.098Z,7.12
2023-02-05T01:33:24.527Z,7.13
2023-02-05T01:35:54.300Z,7.15
2023-02-05T01:38:24.114Z,7.15
2023-02-05T01:40:54.093Z,7.16
2023-02-05T01:43:24.134Z,7.15
2023-02-05T01:46:08.657Z,7.15
2023-02-05T01:48:45.647Z,7.15
2023-02-05T01:51:18.750Z,7.17
2023-02-05T01:53:51.396Z,7.16
2023-02-05T01:56:25.167Z,7.15
2023-02-05T01:58:59.994Z,7.13
2023-02-05T02:01:30.866Z,7.12
2023-02-05T02:04:04.998Z,7.15
2023-02-05T02:06:36.616Z,7.14
2023-02-05T02:09:09.661Z,7.14
2023-02-05T02:11:43.670Z,7.15
2023-02-05T02:14:14.875Z,7.16
2023-02-05T02:16:44.830Z,7.15
2023-02-05T02:19:24.278Z,7.17
2023-02-05T02:22:15.398Z,7.19
2023-02-05T02:25:20.855Z,7.18
2023-02-05T02:27:57.554Z,7.17
2023-02-05T02:30:31.989Z,7.18
2023-02-05T02:33:10.024Z,7.18
2023-02-05T02:35:47.144Z,7.20
2023-02-05T02:38:24.087Z,7.20
2023-02-05T02:40:56.869Z,7.21
2023-02-05T02:43:34.291Z,7.23
2023-02-05T02:46:08.403Z,7.24
2023-02-05T02:48:50.878Z,7.26
2023-02-05T02:51:25.316Z,7.28
2023-02-05T02:53:58.802Z,7.28
2023-02-05T02:56:32.266Z,7.27
2023-02-05T02:59:09.218Z,7.28
2023-02-05T03:01:52.345Z,7.29
2023-02-05T03:04:28.601Z,7.29
2023-02-05T03:07:03.250Z,7.31
2023-02-05T03:09:43.148Z,7.32
2023-02-05T03:12:13.034Z,7.32
2023-02-05T03:14:45.647Z,7.32
2023-02-05T03:17:18.862Z,7.32
2023-02-05T03:19:49.570Z,7.30
2023-02-05T03:22:19.415Z,7.30
2023-02-05T03:24:49.162Z,7.32
2023-02-05T03:27:19.043Z,7.33
2023-02-05T03:29:52.819Z,7.34
2023-02-05T03:32:38.101Z,7.35
2023-02-05T03:35:29.442Z,7.36
2023-02-05T03:38:14.250Z,7.36
2023-02-05T03:40:50.848Z,7.36
2023-02-05T03:43:34.960Z,7.37
2023-02-05T03:46:18.072Z,7.40
2023-02-05T03:49:04.512Z,7.42
2023-02-05T03:51:42.217Z,7.44
2023-02-05T03:54:19.768Z,7.45
2023-02-05T03:56:58.246Z,7.46
2023-02-05T03:59:29.574Z,7.44
2023-02-05T04:02:04.847Z,7.45
2023-02-05T04:04:34.637Z,7.46
2023-02-05T04:07:05.321Z,7.47
2023-02-05T04:09:35.114Z,7.48
2023-02-05T04:12:04.882Z,7.49
2023-02-05T04:14:34.630Z,7.49
2023-02-05T04:17:07.824Z,7.50
2023-02-05T04:19:37.662Z,7.51
2023-02-05T04:22:07.423Z,7.52
2023-02-05T04:24:37.168Z,7.52
2023-02-05T04:27:06.979Z,7.54
2023-02-05T04:29:36.702Z,7.56
2023-02-05T04:32:09.104Z,7.58
2023-02-05T04:34:38.854Z,7.58
2023-02-05T04:37:08.765Z,7.61
2023-02-05T04:39:38.517Z,7.61
2023-02-05T04:42:08.552Z,7.61
2023-02-05T04:44:38.307Z,7.62
2023-02-05T04:47:10.780Z,7.63
2023-02-05T04:49:40.948Z,7.62
2023-02-05T04:52:10.890Z,7.63
2023-02-05T04:54:40.972Z,7.63
2023-02-05T04:57:10.854Z,7.66
2023-02-05T04:59:40.858Z,7.66
2023-02-05T05:02:13.294Z,7.68
2023-02-05T05:04:43.372Z,7.66
2023-02-05T05:07:13.380Z,7.63
2023-02-05T05:09:43.289Z,7.61
2023-02-05T05:12:13.050Z,7.57
2023-02-05T05:14:42.894Z,7.53
2023-02-05T05:17:15.449Z,7.48
2023-02-05T05:19:45.506Z,7.39
2023-02-05T05:22:15.323Z,7.34
2023-02-05T05:24:45.164Z,7.29
2023-02-05T05:27:15.008Z,7.24
2023-02-05T05:29:45.058Z,7.19
2023-02-05T05:32:17.580Z,7.14
2023-02-05T05:34:47.868Z,7.11
2023-02-05T05:37:17.645Z,7.04
2023-02-05T05:39:59.790Z,6.98
2023-02-05T05:42:41.957Z,6.92
2023-02-05T05:45:12.247Z,6.84
2023-02-05T05:47:44.647Z,6.78
2023-02-05T05:50:14.476Z,6.74
2023-02-05T05:52:44.407Z,6.69
2023-02-05T05:55:14.200Z,6.71
2023-02-05T05:57:43.951Z,6.68
2023-02-05T06:00:15.789Z,6.69
2023-02-05T06:02:48.160Z,6.68
2023-02-05T06:05:17.929Z,6.67
2023-02-05T06:07:47.706Z,6.67
2023-02-05T06:10:17.526Z,6.66
2023-02-05T06:12:47.272Z,6.69
2023-02-05T06:15:17.142Z,6.66
2023-02-05T06:17:49.651Z,6.67
2023-02-05T06:20:19.591Z,6.70
2023-02-05T06:22:49.385Z,6.69
2023-02-05T06:25:19.175Z,6.69
2023-02-05T06:27:48.994Z,6.67
2023-02-05T06:30:19.039Z,6.69
2023-02-05T06:32:51.490Z,6.65
2023-02-05T06:35:22.848Z,6.67
2023-02-05T06:37:52.621Z,6.67
2023-02-05T06:40:22.568Z,6.71
2023-02-05T06:42:52.379Z,6.71
2023-02-05T06:45:22.500Z,6.68
2023-02-05T06:47:56.251Z,6.67
2023-02-05T06:50:26.276Z,6.68
2023-02-05T06:52:56.322Z,6.68
2023-02-05T06:55:26.209Z,6.65
2023-02-05T06:57:56.005Z,6.62
2023-02-05T07:00:26.205Z,6.62
2023-02-05T07:02:58.711Z,6.62
2023-02-05T07:05:28.527Z,6.61
2023-02-05T07:07:59.903Z,6.60
2023-02-05T07:10:29.691Z,6.60
2023-02-05T07:12:59.518Z,6.61
2023-02-05T07:15:29.313Z,6.63
2023-02-05T07:18:01.664Z,6.64
2023-02-05T07:20:31.486Z,6.66
2023-02-05T07:23:01.239Z,6.67
2023-02-05T07:25:36.550Z,6.69
2023-02-05T07:28:06.912Z,6.70
2023-02-05T07:30:36.709Z,6.71
2023-02-05T07:33:09.847Z,6.71
2023-02-05T07:35:40.935Z,6.71
2023-02-05T07:38:11.049Z,6.71
2023-02-05T07:40:42.482Z,6.74
2023-02-05T07:43:12.307Z,6.77
2023-02-05T07:45:42.023Z,6.76
2023-02-05T07:48:14.463Z,6.76
2023-02-05T07:50:47.115Z,6.77
2023-02-05T07:53:17.252Z,6.79
2023-02-05T07:55:47.076Z,6.77
2023-02-05T07:58:17.204Z,6.79
2023-02-05T08:00:47.246Z,6.80
2023-02-05T08:03:19.625Z,6.81
2023-02-05T08:05:49.432Z,6.77
2023-02-05T08:08:19.347Z,6.75
2023-02-05T08:10:49.187Z,6.75
2023-02-05T08:13:18.964Z,6.75
2023-02-05T08:15:50.758Z,6.73
2023-02-05T08:18:23.126Z,6.77
2023-02-05T08:20:55.432Z,6.82
2023-02-05T08:23:25.334Z,6.85
2023-02-05T08:25:56.931Z,6.88
2023-02-05T08:28:28.052Z,6.92
2023-02-05T08:30:58.964Z,6.97
2023-02-05T08:33:31.660Z,7.02
2023-02-05T08:36:01.558Z,7.04
2023-02-05T08:38:31.304Z,7.05
2023-02-05T08:41:01.114Z,7.10
2023-02-05T08:43:31.023Z,7.11
2023-02-05T08:46:00.956Z,7.13
2023-02-05T08:48:33.491Z,7.13
2023-02-05T08:51:03.942Z,7.14
2023-02-05T08:53:33.810Z,7.18
2023-02-05T08:56:06.584Z,7.18
2023-02-05T08:58:36.571Z,7.20
2023-02-05T09:01:08.704Z,7.20
2023-02-05T09:03:41.649Z,7.22
2023-02-05T09:06:13.752Z,7.22
2023-02-05T09:08:46.969Z,7.25
2023-02-05T09:11:17.072Z,7.27
2023-02-05T09:13:46.848Z,7.31
2023-02-05T09:16:16.762Z,7.28
2023-02-05T09:18:49.338Z,7.20
2023-02-05T09:21:19.088Z,7.09
2023-02-05T09:23:49.072Z,6.97
2023-02-05T09:26:18.933Z,6.88
2023-02-05T09:28:48.983Z,6.83
2023-02-05T09:31:20.244Z,6.85
2023-02-05T09:33:52.756Z,6.90
2023-02-05T09:36:24.530Z,6.97
2023-02-05T09:39:11.747Z,7.04
2023-02-05T09:41:50.125Z,7.11
2023-02-05T09:44:30.310Z,7.19
2023-02-05T09:47:08.596Z,7.31
2023-02-05T09:49:46.786Z,7.37
2023-02-05T09:52:22.774Z,7.47
2023-02-05T09:54:58.240Z,7.53
2023-02-05T09:57:35.766Z,7.58
2023-02-05T10:00:08.404Z,7.59
2023-02-05T10:02:48.027Z,7.67
2023-02-05T10:05:25.022Z,7.71
2023-02-05T10:08:01.791Z,7.58
2023-02-05T10:10:39.468Z,7.35
2023-02-05T10:13:30.311Z,7.22
2023-02-05T10:16:20.951Z,7.13
2023-02-05T10:19:06.522Z,7.11
2023-02-05T10:21:59.113Z,7.17
2023-02-05T10:24:48.740Z,7.26
2023-02-05T10:27:23.688Z,7.35
2023-02-05T10:30:03.712Z,7.45
2023-02-05T10:32:43.089Z,7.50
2023-02-05T10:35:26.582Z,7.55
2023-02-05T10:37:59.958Z,7.58
2023-02-05T10:40:35.321Z,7.65
2023-02-05T10:43:13.554Z,7.68
2023-02-05T10:45:43.322Z,7.70
2023-02-05T10:48:32.031Z,7.75
2023-02-05T10:51:04.854Z,7.79
2023-02-05T10:53:37.882Z,7.83
2023-02-05T10:56:09.173Z,7.86
2023-02-05T10:58:47.170Z,7.92
2023-02-05T11:01:19.952Z,7.97
2023-02-05T11:03:56.892Z,8.07
2023-02-05T11:06:29.479Z,8.14
2023-02-05T11:09:02.398Z,8.14
2023-02-05T11:11:34.914Z,8.15
2023-02-05T11:14:08.983Z,8.19
2023-02-05T11:16:41.800Z,8.21
2023-02-05T11:19:24.212Z,8.24
2023-02-05T11:21:57.379Z,8.29
2023-02-05T11:24:42.697Z,8.33
2023-02-05T11:27:33.484Z,8.34
2023-02-05T11:30:42.109Z,8.34
2023-02-05T11:33:28.519Z,8.38
2023-02-05T11:36:01.062Z,8.44
2023-02-05T11:38:39.852Z,8.48
2023-02-05T11:41:13.634Z,8.51
2023-02-05T11:43:51.777Z,8.54
2023-02-05T11:46:24.195Z,8.55
2023-02-05T11:49:00.519Z,8.53
2023-02-05T11:51:44.674Z,8.54
2023-02-05T11:54:22.506Z,8.52
2023-02-05T11:57:27.075Z,8.51
2023-02-05T11:59:59.927Z,8.48
2023-02-05T12:02:36.150Z,8.51
2023-02-05T12:05:15.764Z,8.52
2023-02-05T12:07:51.390Z,8.58
2023-02-05T12:10:28.916Z,8.64
2023-02-05T12:13:10.104Z,8.68
2023-02-05T12:15:47.736Z,8.68
2023-02-05T12:18:29.563Z,8.70
2023-02-05T12:21:14.610Z,8.75
2023-02-05T12:24:07.785Z,8.77
2023-02-05T12:26:41.119Z,8.73
2023-02-05T12:29:32.317Z,8.73
2023-02-05T12:32:09.201Z,8.79
2023-02-05T12:34:48.657Z,8.73
2023-02-05T12:37:36.361Z,8.74
2023-02-05T12:40:19.168Z,8.73
2023-02-05T12:42:55.228Z,8.69
2023-02-05T12:45:51.100Z,8.71
2023-02-05T12:48:40.171Z,8.70
2023-02-05T12:51:24.656Z,8.71
2023-02-05T12:54:05.930Z,8.72
2023-02-05T12:56:52.335Z,8.72
2023-02-05T12:59:33.790Z,8.74
2023-02-05T13:02:10.144Z,8.73
2023-02-05T13:04:44.340Z,8.71
2023-02-05T13:07:29.387Z,8.68
2023-02-05T13:10:03.333Z,8.70
2023-02-05T13:12:38.613Z,8.71
2023-02-05T13:15:19.592Z,8.62
2023-02-05T13:18:00.160Z,8.58
2023-02-05T13:20:47.412Z,8.53
2023-02-05T13:23:30.426Z,8.52
2023-02-05T13:26:13.057Z,8.51
2023-02-05T13:28:47.729Z,8.51
2023-02-05T13:31:30.650Z,8.54
2023-02-05T13:34:06.897Z,8.50
2023-02-05T13:36:56.149Z,8.52
2023-02-05T13:40:04.899Z,8.53
2023-02-05T13:43:13.999Z,8.49
2023-02-05T13:46:26.265Z,8.48
2023-02-05T13:49:30.034Z,8.48
2023-02-05T13:52:21.449Z,8.45
2023-02-05T13:55:18.993Z,8.43
2023-02-05T13:58:20.531Z,8.41
2023-02-05T14:01:01.396Z,8.40
2023-02-05T14:03:41.250Z,8.35
2023-02-05T14:06:30.159Z,8.31
2023-02-05T14:09:04.361Z,8.28
2023-02-05T14:11:55.959Z,8.30
2023-02-05T14:14:31.696Z,8.30
2023-02-05T14:17:03.060Z,8.29
2023-02-05T14:19:58.533Z,8.28
2023-02-05T14:22:44.829Z,8.26
2023-02-05T14:25:50.550Z,8.26
2023-02-05T14:28:48.171Z,8.21
2023-02-05T14:31:48.823Z,8.21
2023-02-05T14:34:49.301Z,8.23
2023-02-05T14:37:33.892Z,8.24
2023-02-05T14:40:25.075Z,8.28
2023-02-05T14:43:09.522Z,8.27
2023-02-05T14:45:46.632Z,8.21
2023-02-05T14:48:29.427Z,8.22
2023-02-05T14:51:08.625Z,8.20
2023-02-05T14:53:39.967Z,8.21
2023-02-05T14:56:31.732Z,8.20
2023-02-05T14:59:07.432Z,8.19
2023-02-05T15:01:50.840Z,8.20
2023-02-05T15:04:42.842Z,8.18
2023-02-05T15:07:16.453Z,8.16
2023-02-05T15:09:50.793Z,8.14
2023-02-05T15:12:51.571Z,8.11
2023-02-05T15:15:33.707Z,8.10
2023-02-05T15:18:25.035Z,8.07
2023-02-05T15:20:57.672Z,8.02
2023-02-05T15:23:37.976Z,7.96
2023-02-05T15:26:10.319Z,7.91
2023-02-05T15:28:45.352Z,7.85
2023-02-05T15:31:32.000Z,7.80
2023-02-05T15:34:09.235Z,7.79
2023-02-05T15:36:46.143Z,7.75
2023-02-05T15:39:24.311Z,7.75
2023-02-05T15:41:58.007Z,7.71
2023-02-05T15:44:33.863Z,7.69
2023-02-05T15:47:06.617Z,7.68
2023-02-05T15:49:41.130Z,7.64
2023-02-05T15:52:11.247Z,7.59
2023-02-05T15:54:41.047Z,7.52
2023-02-05T15:57:16.132Z,7.46
2023-02-05T15:59:48.630Z,7.46
2023-02-05T16:02:21.407Z,7.45
2023-02-05T16:04:58.477Z,7.42
2023-02-05T16:07:32.535Z,7.45
2023-02-05T16:10:05.008Z,7.46
2023-02-05T16:12:34.784Z,7.42
2023-02-05T16:15:09.803Z,7.40
2023-02-05T16:17:45.752Z,7.39
2023-02-05T16:20:26.804Z,7.34
2023-02-05T16:23:00.047Z,7.34
2023-02-05T16:25:40.006Z,7.33
2023-02-05T16:28:16.452Z,7.32
2023-02-05T16:30:53.057Z,7.33
2023-02-05T16:33:33.600Z,7.32
2023-02-05T16:36:05.972Z,7.33
2023-02-05T16:38:38.488Z,7.30
2023-02-05T16:41:27.103Z,7.29
2023-02-05T16:43:58.735Z,7.25
2023-02-05T16:46:32.467Z,7.24
2023-02-05T16:49:03.727Z,7.21
2023-02-05T16:51:37.853Z,7.15
2023-02-05T16:54:30.211Z,7.13
2023-02-05T16:57:06.064Z,7.09
2023-02-05T16:59:43.368Z,7.06
2023-02-05T17:02:29.320Z,7.00
2023-02-05T17:05:01.662Z,6.99
2023-02-05T17:07:33.201Z,6.97
2023-02-05T17:10:20.092Z,6.98
2023-02-05T17:12:58.777Z,6.93
2023-02-05T17:15:42.624Z,6.94
2023-02-05T17:18:31.111Z,6.96
2023-02-05T17:21:26.811Z,6.94
2023-02-05T17:23:59.567Z,6.93
2023-02-05T17:26:43.577Z,6.94
2023-02-05T17:29:18.686Z,6.96
2023-02-05T17:31:48.630Z,6.95
2023-02-05T17:34:21.200Z,6.93
2023-02-05T17:36:51.665Z,6.91
2023-02-05T17:39:21.723Z,6.92
2023-02-05T17:42:08.783Z,6.93
2023-02-05T17:45:01.392Z,6.91
2023-02-05T17:47:46.793Z,6.88
2023-02-05T17:50:20.294Z,6.85
2023-02-05T17:52:50.173Z,6.86
2023-02-05T17:55:22.610Z,6.87
2023-02-05T17:57:52.402Z,6.87
2023-02-05T18:00:25.091Z,6.87
2023-02-05T18:02:55.576Z,6.86
2023-02-05T18:05:32.543Z,6.84
2023-02-05T18:08:03.407Z,6.82
2023-02-05T18:10:35.222Z,6.83
2023-02-05T18:13:05.661Z,6.84
2023-02-05T18:15:35.974Z,6.81
2023-02-05T18:18:05.985Z,6.82
2023-02-05T18:20:39.087Z,6.82
2023-02-05T18:23:10.903Z,6.82
2023-02-05T18:25:42.212Z,6.81
2023-02-05T18:31:13.275Z,6.73
2023-02-05T18:33:43.545Z,6.68
2023-02-05T18:36:17.658Z,6.69
2023-02-05T18:38:47.616Z,6.66
2023-02-05T18:41:19.674Z,6.69
2023-02-05T18:43:49.602Z,6.71
2023-02-05T18:46:21.307Z,6.72
2023-02-05T18:48:52.168Z,6.71
2023-02-05T18:51:27.543Z,6.69
2023-02-05T18:53:57.636Z,6.65
2023-02-05T18:56:29.722Z,6.65
2023-02-05T18:59:03.166Z,6.65
2023-02-05T19:01:41.359Z,6.69
2023-02-05T19:04:34.232Z,6.66
2023-02-05T19:07:06.820Z,6.61
2023-02-05T19:09:37.125Z,6.62
2023-02-05T19:12:07.572Z,6.62
2023-02-05T19:14:37.550Z,6.64
2023-02-05T19:17:08.015Z,6.63
2023-02-05T19:19:37.923Z,6.62
2023-02-05T19:22:10.911Z,6.63
2023-02-05T19:24:40.863Z,6.61
2023-02-05T19:27:10.835Z,6.63
2023-02-05T19:29:41.305Z,6.64
2023-02-05T19:32:11.314Z,6.65
2023-02-05T19:34:43.464Z,6.65
2023-02-05T19:37:15.977Z,6.64
2023-02-05T19:39:49.198Z,6.66
2023-02-05T19:42:19.060Z,6.69
2023-02-05T19:44:48.865Z,6.70
2023-02-05T19:47:19.012Z,6.72
2023-02-05T19:49:48.874Z,6.72
2023-02-05T19:52:21.219Z,6.74
2023-02-05T19:54:50.990Z,6.77
2023-02-05T19:57:20.789Z,6.78
2023-02-05T19:59:51.001Z,6.79
2023-02-05T20:02:21.119Z,6.72
2023-02-05T20:04:51.010Z,6.66
2023-02-05T20:07:23.609Z,6.63
2023-02-05T20:09:53.459Z,6.63
2023-02-05T20:12:23.472Z,6.65
2023-02-05T20:14:53.360Z,6.63
2023-02-05T20:17:23.258Z,6.61
2023-02-05T20:20:02.521Z,6.58
2023-02-05T20:22:41.708Z,6.55
2023-02-05T20:25:11.943Z,6.54
2023-02-05T20:27:41.852Z,6.53
2023-02-05T20:30:30.610Z,6.50
2023-02-05T20:33:00.572Z,6.49
2023-02-05T20:35:31.594Z,6.50
2023-02-05T20:38:04.539Z,6.49
2023-02-05T20:40:34.610Z,6.50
2023-02-05T20:43:07.240Z,6.52
2023-02-05T20:45:37.279Z,6.49
2023-02-05T20:48:07.547Z,6.48
2023-02-05T20:50:37.520Z,6.49
2023-02-05T20:53:10.316Z,6.49
2023-02-05T20:55:40.285Z,6.47
2023-02-05T20:58:10.227Z,6.44
2023-02-05T21:00:40.478Z,6.46
2023-02-05T21:03:10.433Z,6.44
2023-02-05T21:05:40.403Z,6.41
2023-02-05T21:08:13.189Z,6.39
2023-02-05T21:10:43.097Z,6.37
2023-02-05T21:13:13.046Z,6.36
2023-02-05T21:15:42.966Z,6.35
2023-02-05T21:18:13.671Z,6.35
2023-02-05T21:20:43.535Z,6.35
2023-02-05T21:23:16.168Z,6.37
2023-02-05T21:25:46.756Z,6.37
2023-02-05T21:28:18.974Z,6.35
2023-02-05T21:30:51.237Z,6.34
2023-02-05T21:33:21.294Z,6.32
2023-02-05T21:35:51.052Z,6.32
2023-02-05T21:38:23.409Z,6.30
2023-02-05T21:40:54.001Z,6.28
2023-02-05T21:43:23.748Z,6.26
2023-02-05T21:45:53.546Z,6.26
2023-02-05T21:48:23.395Z,6.24
2023-02-05T21:50:53.194Z,6.24
2023-02-05T21:53:25.577Z,6.26
2023-02-05T21:55:55.382Z,6.28
2023-02-05T21:58:25.272Z,6.28
2023-02-05T22:00:55.112Z,6.28
2023-02-05T22:03:24.891Z,6.33
2023-02-05T22:05:54.681Z,6.34
2023-02-05T22:08:27.097Z,6.36
2023-02-05T22:10:56.837Z,6.37
2023-02-05T22:13:26.678Z,6.40
2023-02-05T22:16:04.722Z,6.45
2023-02-05T22:18:34.535Z,6.45
2023-02-05T22:21:12.186Z,6.45
2023-02-05T22:23:48.979Z,6.43
2023-02-05T22:26:19.970Z,6.45
2023-02-05T22:28:49.978Z,6.44
2023-02-05T22:31:21.505Z,6.46
2023-02-05T22:33:52.594Z,6.52
2023-02-05T22:36:24.017Z,6.55
2023-02-05T22:38:56.951Z,6.56
2023-02-05T22:41:30.077Z,6.55
2023-02-05T22:44:01.640Z,6.55
2023-02-05T22:46:33.567Z,6.54
2023-02-05T22:49:05.091Z,6.52
2023-02-05T22:51:37.513Z,6.52
2023-02-05T22:54:10.980Z,6.51
2023-02-05T22:56:41.338Z,6.48
2023-02-05T22:59:11.426Z,6.45
2023-02-05T23:01:41.951Z,6.44
2023-02-05T23:04:12.836Z,6.43
2023-02-05T23:06:45.292Z,6.43
2023-02-05T23:09:20.765Z,6.43
2023-02-05T23:11:50.652Z,6.41
2023-02-05T23:14:21.572Z,6.44
2023-02-05T23:16:51.697Z,6.45
2023-02-05T23:19:23.241Z,6.46
2023-02-05T23:21:53.111Z,6.46
2023-02-05T23:24:25.504Z,6.46
2023-02-05T23:26:55.575Z,6.48
2023-02-05T23:29:27.185Z,6.51
2023-02-05T23:31:56.965Z,6.48
2023-02-05T23:34:26.719Z,6.49
2023-02-05T23:36:56.635Z,6.50
2023-02-05T23:39:29.041Z,6.49
2023-02-05T23:41:58.816Z,6.50
2023-02-05T23:44:28.807Z,6.52
2023-02-05T23:46:58.550Z,6.51
2023-02-05T23:49:28.673Z,6.50
2023-02-05T23:51:59.214Z,6.50
2023-02-05T23:54:31.668Z,6.51
2023-02-05T23:57:01.434Z,6.55
2023-02-05T23:59:31.338Z,6.58
